createdAt,value
2023-01-28T00:02:27.516Z,51.36
2023-01-28T00:04:55.713Z,51.66
2023-01-28T00:07:25.486Z,51.59
2023-01-28T00:09:53.435Z,51.30
2023-01-28T00:12:21.396Z,51.41
2023-01-28T00:14:49.440Z,51.93
2023-01-28T00:17:17.784Z,51.21
2023-01-28T00:19:45.866Z,51.17
2023-01-28T00:22:14.031Z,50.69
2023-01-28T00:24:43.615Z,50.46
2023-01-28T00:27:11.796Z,51.16
2023-01-28T00:29:39.949Z,50.96
2023-01-28T00:32:08.613Z,51.16
2023-01-28T00:34:36.833Z,51.38
2023-01-28T00:37:08.557Z,51.54
2023-01-28T00:39:36.579Z,51.31
2023-01-28T00:42:07.335Z,51.58
2023-01-28T00:44:36.399Z,51.53
2023-01-28T00:47:04.474Z,51.66
2023-01-28T00:49:32.460Z,51.83
2023-01-28T00:52:00.569Z,51.37
2023-01-28T00:54:28.701Z,51.70
2023-01-28T00:56:56.851Z,51.67
2023-01-28T00:59:27.389Z,51.57
2023-01-28T01:02:12.897Z,51.83
2023-01-28T01:04:41.650Z,52.27
2023-01-28T01:07:09.776Z,51.53
2023-01-28T01:09:37.729Z,51.82
2023-01-28T01:12:06.092Z,51.91
2023-01-28T01:14:35.713Z,52.41
2023-01-28T01:17:04.045Z,51.78
2023-01-28T01:19:32.743Z,51.35
2023-01-28T01:22:01.649Z,50.93
2023-01-28T01:24:34.231Z,51.19
2023-01-28T01:27:02.249Z,51.23
2023-01-28T01:29:30.465Z,51.56
2023-01-28T01:31:59.968Z,51.64
2023-01-28T01:34:28.207Z,51.82
2023-01-28T01:36:56.421Z,51.82
2023-01-28T01:39:24.707Z,52.11
2023-01-28T01:41:52.810Z,52.40
2023-01-28T01:44:57.458Z,52.59
2023-01-28T01:47:33.007Z,51.67
2023-01-28T01:50:05.817Z,51.52
2023-01-28T01:52:37.180Z,51.15
2023-01-28T01:55:11.311Z,50.77
2023-01-28T01:57:39.678Z,51.71
2023-01-28T02:00:09.481Z,50.75
2023-01-28T02:02:48.278Z,51.13
2023-01-28T02:05:19.613Z,51.62
2023-01-28T02:07:51.135Z,51.94
2023-01-28T02:10:19.952Z,51.92
2023-01-28T02:12:54.597Z,52.20
2023-01-28T02:15:29.705Z,51.59
2023-01-28T02:17:59.291Z,51.24
2023-01-28T02:20:43.264Z,51.61
2023-01-28T02:23:37.008Z,51.45
2023-01-28T02:27:07.692Z,52.02
2023-01-28T02:29:43.342Z,52.11
2023-01-28T02:32:19.943Z,51.59
2023-01-28T02:34:52.998Z,51.25
2023-01-28T02:37:22.830Z,51.63
2023-01-28T02:39:54.138Z,51.87
2023-01-28T02:42:26.465Z,52.05
2023-01-28T02:44:55.710Z,51.68
2023-01-28T02:47:41.687Z,51.40
2023-01-28T02:50:13.620Z,51.45
2023-01-28T02:53:15.812Z,51.25
2023-01-28T02:55:53.969Z,51.13
2023-01-28T02:58:34.607Z,50.08
2023-01-28T03:01:13.513Z,50.95
2023-01-28T03:03:51.202Z,51.22
2023-01-28T03:06:25.112Z,51.56
2023-01-28T03:09:14.090Z,50.95
2023-01-28T03:12:03.954Z,50.93
2023-01-28T03:14:52.551Z,51.46
2023-01-28T03:17:46.472Z,51.49
2023-01-28T03:20:33.495Z,50.76
2023-01-28T03:23:25.977Z,50.56
2023-01-28T03:26:16.904Z,51.67
2023-01-28T03:29:06.693Z,51.43
2023-01-28T03:31:54.732Z,50.49
2023-01-28T03:34:42.080Z,50.36
2023-01-28T03:37:10.660Z,49.91
2023-01-28T03:39:46.178Z,50.75
2023-01-28T03:42:18.137Z,51.01
2023-01-28T03:45:04.746Z,51.58
2023-01-28T03:47:34.432Z,50.80
2023-01-28T03:50:07.278Z,50.26
2023-01-28T03:52:43.573Z,50.09
2023-01-28T03:55:32.001Z,50.88
2023-01-28T03:57:59.983Z,51.29
2023-01-28T04:00:27.907Z,51.30
2023-01-28T04:02:56.862Z,50.70
2023-01-28T04:05:26.816Z,50.80
2023-01-28T04:07:56.036Z,51.08
2023-01-28T04:10:38.670Z,50.82
2023-01-28T04:13:27.033Z,51.00
2023-01-28T04:15:55.289Z,50.89
2023-01-28T04:18:27.390Z,51.91
2023-01-28T04:20:58.918Z,51.64
2023-01-28T04:23:26.968Z,52.33
2023-01-28T04:25:55.279Z,53.02
2023-01-28T04:28:24.969Z,52.76
2023-01-28T04:30:54.340Z,53.38
2023-01-28T04:33:48.388Z,53.13
2023-01-28T04:36:36.062Z,53.12
2023-01-28T04:39:10.040Z,53.95
2023-01-28T04:41:37.968Z,53.90
2023-01-28T04:44:13.808Z,54.34
2023-01-28T04:46:54.055Z,54.61
2023-01-28T04:49:57.271Z,53.97
2023-01-28T04:52:49.582Z,53.76
2023-01-28T04:55:38.165Z,52.69
2023-01-28T04:58:06.854Z,52.33
2023-01-28T05:00:36.084Z,52.49
2023-01-28T05:03:04.874Z,52.86
2023-01-28T05:05:33.171Z,52.78
2023-01-28T05:08:15.937Z,52.88
2023-01-28T05:10:45.841Z,53.48
2023-01-28T05:13:14.450Z,54.05
2023-01-28T05:15:43.045Z,54.51
2023-01-28T05:18:11.187Z,54.03
2023-01-28T05:20:45.313Z,54.52
2023-01-28T05:23:13.328Z,54.22
2023-01-28T05:25:53.207Z,53.96
2023-01-28T05:28:21.482Z,53.98
2023-01-28T05:30:50.258Z,54.43
2023-01-28T05:33:19.139Z,54.45
2023-01-28T05:35:49.610Z,54.43
2023-01-28T05:38:18.460Z,54.76
2023-01-28T05:40:46.469Z,54.71
2023-01-28T05:43:16.628Z,54.56
2023-01-28T05:45:48.677Z,54.94
2023-01-28T05:48:28.520Z,55.08
2023-01-28T05:51:13.077Z,54.33
2023-01-28T05:53:46.503Z,54.19
2023-01-28T05:56:15.026Z,53.82
2023-01-28T05:58:44.958Z,54.06
2023-01-28T06:01:13.061Z,54.83
2023-01-28T06:03:48.936Z,55.05
2023-01-28T06:06:17.143Z,55.24
2023-01-28T06:08:45.214Z,54.87
2023-01-28T06:11:17.158Z,55.07
2023-01-28T06:13:48.135Z,55.07
2023-01-28T06:16:39.277Z,55.32
2023-01-28T06:19:21.282Z,55.23
2023-01-28T06:21:49.280Z,55.42
2023-01-28T06:24:18.650Z,55.42
2023-01-28T06:26:46.878Z,55.20
2023-01-28T06:29:17.034Z,55.14
2023-01-28T06:31:45.007Z,55.10
2023-01-28T06:34:13.369Z,55.54
2023-01-28T06:36:41.805Z,55.70
2023-01-28T06:39:10.361Z,56.19
2023-01-28T06:41:38.471Z,56.58
2023-01-28T06:44:07.026Z,57.00
2023-01-28T06:46:37.062Z,56.49
2023-01-28T06:49:05.569Z,56.10
2023-01-28T06:51:33.703Z,56.14
2023-01-28T06:54:02.765Z,55.84
2023-01-28T06:56:31.148Z,56.45
2023-01-28T06:58:59.201Z,56.59
2023-01-28T07:01:27.689Z,57.02
2023-01-28T07:03:57.771Z,56.43
2023-01-28T07:06:26.335Z,56.94
2023-01-28T07:08:54.366Z,57.14
2023-01-28T07:11:22.558Z,57.13
2023-01-28T07:13:50.857Z,56.91
2023-01-28T07:16:19.129Z,56.64
2023-01-28T07:18:47.518Z,56.41
2023-01-28T07:21:16.907Z,56.96
2023-01-28T07:23:45.020Z,56.73
2023-01-28T07:26:13.072Z,57.06
2023-01-28T07:28:41.149Z,56.96
2023-01-28T07:31:09.399Z,57.27
2023-01-28T07:33:37.824Z,57.00
2023-01-28T07:36:07.204Z,56.97
2023-01-28T07:38:36.797Z,57.19
2023-01-28T07:41:06.099Z,56.94
2023-01-28T07:43:34.316Z,57.50
2023-01-28T07:46:03.313Z,57.47
2023-01-28T07:48:31.501Z,57.72
2023-01-28T07:51:01.651Z,57.56
2023-01-28T07:53:29.988Z,57.34
2023-01-28T07:56:03.306Z,57.50
2023-01-28T07:58:32.524Z,57.57
2023-01-28T08:01:00.783Z,58.07
2023-01-28T08:03:29.924Z,57.72
2023-01-28T08:05:58.933Z,57.60
2023-01-28T08:08:29.538Z,58.43
2023-01-28T08:10:58.351Z,57.87
2023-01-28T08:13:27.991Z,57.61
2023-01-28T08:15:57.527Z,57.71
2023-01-28T08:18:25.666Z,57.43
2023-01-28T08:20:56.930Z,57.53
2023-01-28T08:23:26.939Z,57.45
2023-01-28T08:25:56.321Z,57.33
2023-01-28T08:28:24.814Z,57.60
2023-01-28T08:30:55.017Z,57.89
2023-01-28T08:33:23.494Z,58.78
2023-01-28T08:35:51.847Z,58.74
2023-01-28T08:38:20.463Z,58.90
2023-01-28T08:40:50.476Z,58.66
2023-01-28T08:43:18.470Z,59.27
2023-01-28T08:45:46.560Z,58.33
2023-01-28T08:48:18.595Z,57.93
2023-01-28T08:50:47.335Z,57.90
2023-01-28T08:53:17.495Z,58.09
2023-01-28T08:55:46.468Z,57.88
2023-01-28T08:58:15.906Z,57.29
2023-01-28T09:00:46.461Z,58.07
2023-01-28T09:03:16.386Z,59.08
2023-01-28T09:05:44.747Z,58.11
2023-01-28T09:08:15.624Z,58.33
2023-01-28T09:10:44.585Z,58.66
2023-01-28T09:13:14.865Z,58.95
2023-01-28T09:15:43.772Z,58.58
2023-01-28T09:18:12.493Z,58.55
2023-01-28T09:20:42.367Z,58.23
2023-01-28T09:23:10.906Z,58.14
2023-01-28T09:25:39.501Z,58.84
2023-01-28T09:28:08.192Z,58.43
2023-01-28T09:30:38.245Z,58.47
2023-01-28T09:33:07.099Z,57.94
2023-01-28T09:35:36.205Z,58.34
2023-01-28T09:38:06.361Z,58.46
2023-01-28T09:40:38.430Z,58.84
2023-01-28T09:43:27.673Z,58.82
2023-01-28T09:45:59.293Z,58.95
2023-01-28T09:48:32.873Z,58.50
2023-01-28T09:51:02.143Z,58.28
2023-01-28T09:53:35.877Z,58.38
2023-01-28T09:56:07.288Z,58.66
2023-01-28T09:58:35.480Z,58.50
2023-01-28T10:01:23.635Z,58.06
2023-01-28T10:03:59.378Z,58.50
2023-01-28T10:06:36.924Z,58.66
2023-01-28T10:09:20.509Z,58.90
2023-01-28T10:12:02.304Z,59.21
2023-01-28T10:14:42.710Z,58.63
2023-01-28T10:17:15.988Z,59.06
2023-01-28T10:19:47.982Z,57.91
2023-01-28T10:22:21.105Z,57.72
2023-01-28T10:24:55.691Z,57.60
2023-01-28T10:27:28.359Z,57.36
2023-01-28T10:29:56.748Z,57.82
2023-01-28T10:32:31.009Z,57.58
2023-01-28T10:35:01.951Z,57.35
2023-01-28T10:37:33.383Z,57.86
2023-01-28T10:40:04.582Z,57.81
2023-01-28T10:42:34.919Z,57.26
2023-01-28T10:45:08.784Z,57.12
2023-01-28T10:47:42.172Z,56.69
2023-01-28T10:50:16.820Z,56.63
2023-01-28T10:52:54.449Z,57.10
2023-01-28T10:55:25.266Z,57.08
2023-01-28T10:57:54.316Z,57.11
2023-01-28T11:00:28.141Z,57.13
2023-01-28T11:02:56.452Z,57.21
2023-01-28T11:05:27.348Z,57.07
2023-01-28T11:08:07.432Z,57.50
2023-01-28T11:10:40.701Z,56.77
2023-01-28T11:13:18.804Z,57.25
2023-01-28T11:15:51.896Z,56.73
2023-01-28T11:18:23.144Z,56.79
2023-01-28T11:20:55.035Z,56.76
2023-01-28T11:23:26.201Z,57.04
2023-01-28T11:26:07.587Z,57.07
2023-01-28T11:28:41.234Z,56.83
2023-01-28T11:31:11.425Z,57.52
2023-01-28T11:33:44.373Z,57.57
2023-01-28T11:36:16.681Z,57.43
2023-01-28T11:38:53.108Z,57.96
2023-01-28T11:41:28.970Z,57.80
2023-01-28T11:43:57.836Z,57.40
2023-01-28T11:46:54.325Z,57.89
2023-01-28T11:49:35.731Z,57.46
2023-01-28T11:52:17.258Z,57.82
2023-01-28T11:54:55.227Z,58.50
2023-01-28T11:57:34.230Z,58.59
2023-01-28T12:00:30.005Z,58.47
2023-01-28T12:03:12.005Z,58.44
2023-01-28T12:05:49.636Z,58.47
2023-01-28T12:08:25.893Z,58.59
2023-01-28T12:11:19.174Z,58.47
2023-01-28T12:14:02.061Z,58.13
2023-01-28T12:17:00.772Z,57.55
2023-01-28T12:19:47.303Z,57.83
2023-01-28T12:22:27.943Z,58.51
2023-01-28T12:25:11.153Z,58.03
2023-01-28T12:27:51.929Z,58.06
2023-01-28T12:30:30.606Z,57.86
2023-01-28T12:33:17.548Z,58.07
2023-01-28T12:36:03.180Z,58.01
2023-01-28T12:38:45.438Z,58.47
2023-01-28T12:41:18.044Z,56.65
2023-01-28T12:43:56.860Z,56.43
2023-01-28T12:46:38.164Z,56.09
2023-01-28T12:49:10.533Z,55.28
2023-01-28T12:51:48.073Z,55.70
2023-01-28T12:54:22.746Z,55.53
2023-01-28T12:56:53.890Z,54.33
2023-01-28T12:59:29.944Z,54.31
2023-01-28T13:02:07.952Z,54.60
2023-01-28T13:04:41.900Z,54.44
2023-01-28T13:07:15.537Z,54.43
2023-01-28T13:09:54.956Z,54.95
2023-01-28T13:12:23.926Z,54.86
2023-01-28T13:14:54.274Z,55.59
2023-01-28T13:17:32.002Z,55.42
2023-01-28T13:20:01.307Z,55.95
2023-01-28T13:22:32.514Z,56.31
2023-01-28T13:25:19.985Z,56.70
2023-01-28T13:27:56.680Z,57.24
2023-01-28T13:30:28.644Z,57.45
2023-01-28T13:33:02.277Z,57.35
2023-01-28T13:35:36.893Z,57.30
2023-01-28T13:38:10.482Z,58.54
2023-01-28T13:40:42.003Z,58.61
2023-01-28T13:43:29.754Z,59.35
2023-01-28T13:46:01.656Z,59.35
2023-01-28T13:48:36.415Z,59.06
2023-01-28T13:51:11.058Z,58.56
2023-01-28T13:53:50.578Z,58.97
2023-01-28T13:56:23.507Z,58.83
2023-01-28T13:59:39.825Z,60.22
2023-01-28T14:02:48.475Z,60.55
2023-01-28T14:05:55.534Z,60.23
2023-01-28T14:09:00.546Z,60.17
2023-01-28T14:11:50.656Z,59.70
2023-01-28T14:14:50.595Z,59.95
2023-01-28T14:17:26.064Z,59.77
2023-01-28T14:19:55.315Z,60.02
2023-01-28T14:22:23.701Z,60.41
2023-01-28T14:24:53.539Z,60.31
2023-01-28T14:27:26.731Z,60.40
2023-01-28T14:30:05.400Z,60.31
2023-01-28T14:32:36.359Z,59.59
2023-01-28T14:35:09.469Z,60.26
2023-01-28T14:37:37.772Z,60.67
2023-01-28T14:40:14.172Z,60.44
2023-01-28T14:42:46.248Z,60.46
2023-01-28T14:45:40.160Z,61.28
2023-01-28T14:48:21.909Z,60.91
2023-01-28T14:51:20.570Z,61.32
2023-01-28T14:54:15.843Z,61.38
2023-01-28T14:56:58.971Z,62.43
2023-01-28T14:59:31.697Z,61.93
2023-01-28T15:02:05.136Z,61.81
2023-01-28T15:04:37.038Z,61.90
2023-01-28T15:07:18.421Z,61.96
2023-01-28T15:09:46.741Z,61.53
2023-01-28T15:12:18.175Z,61.92
2023-01-28T15:14:48.100Z,61.67
2023-01-28T15:17:27.372Z,61.21
2023-01-28T15:19:57.514Z,60.92
2023-01-28T15:22:28.436Z,60.99
2023-01-28T15:24:57.021Z,60.92
2023-01-28T15:27:30.427Z,61.00
2023-01-28T15:29:58.309Z,60.92
2023-01-28T15:32:29.149Z,61.40
2023-01-28T15:34:57.744Z,61.40
2023-01-28T15:37:25.840Z,61.53
2023-01-28T15:40:02.159Z,61.22
2023-01-28T15:42:31.866Z,60.93
2023-01-28T15:45:00.339Z,61.03
2023-01-28T15:47:32.326Z,61.05
2023-01-28T15:50:04.276Z,61.30
2023-01-28T15:52:36.291Z,61.34
2023-01-28T15:55:06.927Z,61.25
2023-01-28T15:57:36.842Z,61.27
2023-01-28T16:00:13.839Z,61.15
2023-01-28T16:02:46.799Z,61.10
2023-01-28T16:05:27.778Z,61.15
2023-01-28T16:07:57.547Z,61.28
2023-01-28T16:10:28.910Z,61.22
2023-01-28T16:13:07.425Z,61.15
2023-01-28T16:15:36.655Z,61.19
2023-01-28T16:18:06.084Z,61.48
2023-01-28T16:20:34.577Z,61.96
2023-01-28T16:23:04.817Z,61.48
2023-01-28T16:25:34.792Z,61.41
2023-01-28T16:28:05.304Z,61.56
2023-01-28T16:30:33.829Z,61.92
2023-01-28T16:33:01.759Z,61.85
2023-01-28T16:35:46.912Z,62.00
2023-01-28T16:38:19.695Z,61.69
2023-01-28T16:40:48.676Z,62.17
2023-01-28T16:43:18.844Z,62.40
2023-01-28T16:45:47.416Z,61.99
2023-01-28T16:48:15.392Z,61.91
2023-01-28T16:50:44.370Z,62.10
2023-01-28T16:53:20.927Z,62.26
2023-01-28T16:55:51.828Z,62.36
2023-01-28T16:58:25.002Z,62.11
2023-01-28T17:00:53.219Z,62.02
2023-01-28T17:03:21.306Z,62.51
2023-01-28T17:05:49.316Z,62.89
2023-01-28T17:08:17.340Z,62.42
2023-01-28T17:10:45.807Z,62.92
2023-01-28T17:13:13.744Z,62.20
2023-01-28T17:15:43.130Z,62.17
2023-01-28T17:18:11.575Z,62.20
2023-01-28T17:20:40.516Z,62.20
2023-01-28T17:23:09.739Z,62.42
2023-01-28T17:25:39.694Z,61.99
2023-01-28T17:28:09.105Z,62.49
2023-01-28T17:30:41.267Z,62.32
2023-01-28T17:33:11.280Z,62.29
2023-01-28T17:35:40.397Z,62.32
2023-01-28T17:38:08.546Z,62.05
2023-01-28T17:40:36.618Z,61.95
2023-01-28T17:43:05.043Z,62.24
2023-01-28T17:45:33.711Z,62.59
2023-01-28T17:48:01.989Z,62.45
2023-01-28T17:50:31.945Z,63.15
2023-01-28T17:53:00.470Z,63.02
2023-01-28T17:55:28.435Z,63.05
2023-01-28T17:57:56.460Z,62.71
2023-01-28T18:00:26.964Z,62.13
2023-01-28T18:02:55.025Z,62.05
2023-01-28T18:05:23.952Z,61.84
2023-01-28T18:07:53.931Z,62.18
2023-01-28T18:10:22.404Z,62.58
2023-01-28T18:12:50.472Z,62.40
2023-01-28T18:15:19.061Z,62.44
2023-01-28T18:17:47.292Z,62.41
2023-01-28T18:20:15.811Z,62.36
2023-01-28T18:22:44.079Z,62.20
2023-01-28T18:25:16.813Z,62.04
2023-01-28T18:27:45.947Z,61.82
2023-01-28T18:30:16.514Z,62.31
2023-01-28T18:32:44.649Z,62.60
2023-01-28T18:35:12.820Z,62.46
2023-01-28T18:37:41.290Z,62.33
2023-01-28T18:40:10.655Z,62.24
2023-01-28T18:42:40.258Z,62.39
2023-01-28T18:45:10.475Z,62.31
2023-01-28T18:47:38.634Z,62.42
2023-01-28T18:50:08.796Z,62.43
2023-01-28T18:52:37.117Z,63.07
2023-01-28T18:55:06.262Z,62.58
2023-01-28T18:57:34.248Z,62.61
2023-01-28T19:00:04.999Z,62.09
2023-01-28T19:02:33.480Z,62.38
2023-01-28T19:05:01.659Z,62.71
2023-01-28T19:07:31.652Z,63.52
2023-01-28T19:09:59.691Z,63.27
2023-01-28T19:12:27.663Z,62.84
2023-01-28T19:14:57.150Z,63.01
2023-01-28T19:17:26.592Z,62.89
2023-01-28T19:19:55.426Z,63.15
2023-01-28T19:22:23.719Z,62.96
2023-01-28T19:24:51.681Z,63.11
2023-01-28T19:27:19.745Z,63.09
2023-01-28T19:29:47.695Z,63.35
2023-01-28T19:32:15.685Z,63.51
2023-01-28T19:34:45.214Z,63.29
2023-01-28T19:37:13.444Z,63.58
2023-01-28T19:39:41.609Z,63.82
2023-01-28T19:42:10.023Z,63.26
2023-01-28T19:44:38.238Z,63.37
2023-01-28T19:47:06.711Z,63.52
2023-01-28T19:49:34.586Z,63.87
2023-01-28T19:52:08.998Z,63.45
2023-01-28T19:54:37.144Z,64.17
2023-01-28T19:57:05.389Z,63.95
2023-01-28T19:59:33.846Z,63.79
2023-01-28T20:02:01.905Z,63.63
2023-01-28T20:04:30.166Z,64.02
2023-01-28T20:06:58.416Z,63.83
2023-01-28T20:09:27.886Z,64.03
2023-01-28T20:11:55.880Z,63.82
2023-01-28T20:14:23.789Z,64.00
2023-01-28T20:16:51.779Z,64.04
2023-01-28T20:19:20.414Z,64.07
2023-01-28T20:21:51.525Z,63.84
2023-01-28T20:24:19.533Z,63.45
2023-01-28T20:26:48.864Z,63.66
2023-01-28T20:29:19.906Z,63.40
2023-01-28T20:31:57.655Z,63.59
2023-01-28T20:34:36.102Z,63.78
2023-01-28T20:37:06.572Z,64.00
2023-01-28T20:39:34.585Z,64.20
2023-01-28T20:42:06.341Z,64.15
2023-01-28T20:44:34.932Z,64.11
2023-01-28T20:47:03.094Z,63.83
2023-01-28T20:49:31.053Z,63.60
2023-01-28T20:51:59.053Z,63.54
2023-01-28T20:54:27.433Z,63.47
2023-01-28T20:56:57.294Z,63.61
2023-01-28T20:59:27.567Z,63.70
2023-01-28T21:01:55.718Z,63.57
2023-01-28T21:04:23.975Z,63.12
2023-01-28T21:06:52.273Z,63.87
2023-01-28T21:09:20.310Z,63.61
2023-01-28T21:11:48.248Z,63.97
2023-01-28T21:14:17.432Z,63.79
2023-01-28T21:16:47.304Z,63.94
2023-01-28T21:19:15.448Z,64.27
2023-01-28T21:21:45.208Z,64.64
2023-01-28T21:24:13.696Z,64.59
2023-01-28T21:26:41.849Z,64.46
2023-01-28T21:29:09.934Z,64.33
2023-01-28T21:31:37.914Z,64.16
2023-01-28T21:34:08.422Z,64.16
2023-01-28T21:36:37.470Z,64.29
2023-01-28T21:39:06.632Z,63.89
2023-01-28T21:41:34.846Z,64.23
2023-01-28T21:44:03.605Z,64.48
2023-01-28T21:46:33.831Z,64.95
2023-01-28T21:49:03.565Z,64.39
2023-01-28T21:51:40.455Z,64.62
2023-01-28T21:54:12.470Z,65.41
2023-01-28T21:56:40.692Z,65.59
2023-01-28T21:59:26.329Z,65.16
2023-01-28T22:01:54.966Z,65.03
2023-01-28T22:04:23.747Z,65.11
2023-01-28T22:06:55.393Z,65.04
2023-01-28T22:09:23.791Z,64.97
2023-01-28T22:11:52.524Z,65.06
2023-01-28T22:14:20.517Z,65.79
2023-01-28T22:16:48.895Z,65.85
2023-01-28T22:19:17.051Z,66.26
2023-01-28T22:21:46.892Z,66.04
2023-01-28T22:24:18.843Z,65.60
2023-01-28T22:26:48.207Z,65.79
2023-01-28T22:29:17.952Z,66.17
2023-01-28T22:31:47.239Z,66.18
2023-01-28T22:34:15.618Z,65.90
2023-01-28T22:36:43.824Z,66.33
2023-01-28T22:39:14.246Z,65.85
2023-01-28T22:41:44.596Z,66.69
2023-01-28T22:44:12.858Z,66.69
2023-01-28T22:46:41.292Z,66.72
2023-01-28T22:49:10.642Z,66.24
2023-01-28T22:51:38.761Z,66.69
2023-01-28T22:54:07.316Z,66.42
2023-01-28T22:56:35.561Z,67.11
2023-01-28T22:59:05.455Z,67.14
2023-01-28T23:01:33.738Z,67.17
2023-01-28T23:04:01.934Z,67.19
2023-01-28T23:06:31.085Z,67.16
2023-01-28T23:08:59.037Z,67.06
2023-01-28T23:11:27.737Z,67.45
2023-01-28T23:14:16.043Z,67.16
2023-01-28T23:17:03.556Z,67.21
2023-01-28T23:19:50.146Z,66.55
2023-01-28T23:22:40.110Z,66.60
2023-01-28T23:25:08.873Z,66.60
2023-01-28T23:27:37.119Z,65.95
2023-01-28T23:30:10.011Z,66.06
2023-01-28T23:32:40.944Z,65.62
2023-01-28T23:35:09.938Z,65.52
2023-01-28T23:37:38.364Z,65.33
2023-01-28T23:40:08.017Z,65.15
2023-01-28T23:42:36.166Z,64.60
2023-01-28T23:45:06.175Z,64.59
2023-01-28T23:47:34.357Z,64.46
2023-01-28T23:50:04.271Z,64.39
2023-01-28T23:52:32.552Z,64.71
2023-01-28T23:55:00.834Z,64.83
2023-01-28T23:57:28.933Z,64.74
2023-01-28T23:59:56.955Z,64.79
